Time;durP1;ratioP1;P1;durP2;ratioP2;P2;SDS_P1;SDS_P2;PMS_P1;PMS_P2;Temp;Humidity;BMP_temperature;BMP_pressure;BME280_temperature;BME280_humidity;BME280_pressure;Samples;Min_cycle;Max_cycle;Signal;HPM_P1;HPM_P2
2022/04/11 00:01:24;;;;;;;9.20;4.35;;;;;;;-141.50;100.00;63355.56;5083235;28;20464;-77
2022/04/11 00:03:50;;;;;;;6.75;3.80;;;;;;;-141.50;100.00;63355.56;5089823;28;20044;-76
2022/04/11 00:06:17;;;;;;;10.35;4.68;;;;;;;-141.50;100.00;63355.56;5089157;28;20555;-76
2022/04/11 00:08:43;;;;;;;10.40;4.55;;;;;;;-141.50;100.00;63355.56;5059758;28;20477;-78
2022/04/11 00:11:12;;;;;;;10.77;4.88;;;;;;;-141.50;100.00;63355.56;5068958;28;20480;-77
2022/04/11 00:13:39;;;;;;;13.35;5.03;;;;;;;-141.50;100.00;63355.56;5089645;28;20081;-75
2022/04/11 00:16:07;;;;;;;12.18;4.78;;;;;;;-141.50;100.00;63355.56;5089822;28;20471;-76
2022/04/11 00:18:34;;;;;;;8.10;4.50;;;;;;;-141.50;100.00;63355.56;5089370;28;20055;-76
2022/04/11 00:21:01;;;;;;;11.32;5.03;;;;;;;-141.50;100.00;63355.56;5089092;28;20562;-76
2022/04/11 00:23:28;;;;;;;11.18;4.90;;;;;;;-141.50;100.00;63355.56;5088899;28;20529;-77
2022/04/11 00:25:54;;;;;;;10.77;5.30;;;;;;;-141.50;100.00;63355.56;5089155;28;20530;-76
2022/04/11 00:28:21;;;;;;;10.77;5.10;;;;;;;-141.50;100.00;63355.56;5089051;28;20040;-76
2022/04/11 00:30:48;;;;;;;10.90;5.07;;;;;;;-141.50;100.00;63355.56;5089314;28;20418;-76
2022/04/11 00:33:14;;;;;;;10.93;5.28;;;;;;;-141.50;100.00;63355.56;5094442;28;20350;-75
2022/04/11 00:35:41;;;;;;;8.93;4.70;;;;;;;-141.50;100.00;63355.56;5071264;28;20044;-75
2022/04/11 00:38:07;;;;;;;10.52;5.18;;;;;;;-141.50;100.00;63355.56;5070806;28;20143;-75
2022/04/11 00:40:34;;;;;;;13.13;4.93;;;;;;;-141.50;100.00;63355.56;5070822;28;20535;-76
2022/04/11 00:43:03;;;;;;;11.52;5.43;;;;;;;-141.50;100.00;63355.56;5070816;28;20138;-74
2022/04/11 00:45:30;;;;;;;10.65;4.38;;;;;;;-141.50;100.00;63355.56;5089158;28;20052;-76
2022/04/11 00:47:56;;;;;;;12.07;4.45;;;;;;;-141.50;100.00;63355.56;5088705;28;20056;-74
2022/04/11 00:50:23;;;;;;;11.20;5.00;;;;;;;-141.50;100.00;63355.56;5088797;28;20354;-74
2022/04/11 00:52:53;;;;;;;9.27;4.80;;;;;;;-141.50;100.00;63355.56;5089807;28;20063;-76
2022/04/11 00:55:23;;;;;;;11.55;4.22;;;;;;;-141.50;100.00;63355.56;5071090;28;20086;-75
2022/04/11 00:57:51;;;;;;;8.48;4.28;;;;;;;-141.50;100.00;63355.56;5089524;28;20110;-75
2022/04/11 01:00:18;;;;;;;9.75;4.40;;;;;;;-141.50;100.00;63355.56;5088546;28;20052;-75
2022/04/11 01:02:45;;;;;;;9.80;4.25;;;;;;;-141.50;100.00;63355.56;5070673;28;20519;-74
2022/04/11 01:05:13;;;;;;;11.05;4.97;;;;;;;-141.50;100.00;63355.56;5069955;28;20056;-75
2022/04/11 01:07:41;;;;;;;16.70;4.85;;;;;;;-141.50;100.00;63355.56;5083407;28;20048;-74
2022/04/11 01:10:08;;;;;;;8.23;4.28;;;;;;;-141.50;100.00;63355.56;5074530;28;20047;-75
2022/04/11 01:12:35;;;;;;;10.23;4.13;;;;;;;-141.50;100.00;63355.56;5093815;28;20051;-76
2022/04/11 01:15:02;;;;;;;13.05;4.88;;;;;;;-141.50;100.00;63355.56;5093902;28;20052;-75
2022/04/11 01:17:33;;;;;;;9.15;4.43;;;;;;;-141.50;100.00;63355.56;5094513;28;20148;-77
2022/04/11 01:20:16;;;;;;;8.25;4.40;;;;;;;-141.50;100.00;63355.56;5075761;28;20442;-74
2022/04/11 01:22:43;;;;;;;8.52;4.63;;;;;;;-141.50;100.00;63355.56;5095027;28;20051;-75
2022/04/11 01:25:11;;;;;;;7.65;4.30;;;;;;;-141.50;100.00;63355.56;5097959;28;20051;-75
2022/04/11 01:27:38;;;;;;;13.82;4.88;;;;;;;-141.50;100.00;63355.56;5080423;28;20131;-73
2022/04/11 01:30:05;;;;;;;9.30;4.78;;;;;;;-141.50;100.00;63355.56;5108254;28;20056;-74
2022/04/11 01:32:32;;;;;;;12.30;4.82;;;;;;;-141.50;100.00;63355.56;5094814;28;20097;-75
2022/04/11 01:34:59;;;;;;;9.98;5.10;;;;;;;-141.50;100.00;63355.56;5092468;28;20083;-75
2022/04/11 01:37:27;;;;;;;14.25;5.50;;;;;;;-141.50;100.00;63355.56;5074336;28;20044;-76
2022/04/11 01:39:53;;;;;;;12.38;5.35;;;;;;;-141.50;100.00;63355.56;5092421;28;20135;-76
2022/04/11 01:42:20;;;;;;;13.00;5.45;;;;;;;-141.50;100.00;63355.56;5091597;28;20071;-76
2022/04/11 01:44:46;;;;;;;10.18;5.03;;;;;;;-141.50;100.00;63355.56;5073402;28;20475;-75
2022/04/11 01:47:13;;;;;;;9.85;5.30;;;;;;;-141.50;100.00;63355.56;5092706;28;20083;-75
2022/04/11 01:49:39;;;;;;;11.27;5.32;;;;;;;-141.50;100.00;63355.56;5108355;28;20055;-73
2022/04/11 01:52:06;;;;;;;14.02;4.82;;;;;;;-141.50;100.00;63355.56;5105548;28;20040;-74
2022/04/11 01:54:33;;;;;;;10.77;5.38;;;;;;;-141.50;100.00;63355.56;5094407;28;20101;-73
2022/04/11 01:56:59;;;;;;;13.25;5.70;;;;;;;-141.50;100.00;63355.56;5095637;28;20075;-73
2022/04/11 01:59:26;;;;;;;10.07;4.90;;;;;;;-141.50;100.00;63355.56;5076396;28;20048;-74
2022/04/11 02:01:53;;;;;;;11.85;5.70;;;;;;;-141.50;100.00;63355.56;5093418;28;20054;-73
2022/04/11 02:04:19;;;;;;;11.15;4.95;;;;;;;-141.50;100.00;63355.56;5093828;28;20098;-75
2022/04/11 02:06:46;;;;;;;11.23;5.30;;;;;;;-141.50;100.00;63355.56;5093375;28;20072;-75
2022/04/11 02:09:12;;;;;;;11.93;5.85;;;;;;;-141.50;100.00;63355.56;5076790;28;20082;-74
2022/04/11 02:11:39;;;;;;;10.48;4.93;;;;;;;-141.50;100.00;63355.56;5075262;28;20083;-73
2022/04/11 02:14:06;;;;;;;11.40;5.18;;;;;;;-141.50;100.00;63355.56;5074777;28;20094;-75
2022/04/11 02:16:32;;;;;;;12.15;5.15;;;;;;;-141.50;100.00;63355.56;5092581;28;20101;-75
2022/04/11 02:18:59;;;;;;;12.63;5.45;;;;;;;-141.50;100.00;63355.56;5091338;28;20098;-75
2022/04/11 02:21:25;;;;;;;13.10;5.90;;;;;;;-141.50;100.00;63355.56;5091496;28;20079;-75
2022/04/11 02:23:52;;;;;;;14.27;5.45;;;;;;;-141.50;100.00;63355.56;5073154;28;20075;-75
2022/04/11 02:26:18;;;;;;;9.90;5.60;;;;;;;-141.50;100.00;63355.56;5090428;28;20364;-76
2022/04/11 02:28:45;;;;;;;11.20;5.82;;;;;;;-141.50;100.00;63355.56;5073010;28;20127;-75
2022/04/11 02:31:11;;;;;;;10.95;5.90;;;;;;;-141.50;100.00;63355.56;5089591;28;20135;-75
2022/04/11 02:33:38;;;;;;;12.73;6.22;;;;;;;-141.50;100.00;63355.56;5090386;28;20080;-76
2022/04/11 02:36:05;;;;;;;12.52;5.72;;;;;;;-141.50;100.00;63355.56;5089796;28;20176;-76
2022/04/11 02:38:33;;;;;;;15.57;5.57;;;;;;;-141.50;100.00;63355.56;5089851;28;20059;-77
2022/04/11 02:40:59;;;;;;;14.10;6.25;;;;;;;-141.50;100.00;63355.56;5089925;28;20079;-76
2022/04/11 02:43:26;;;;;;;14.27;6.28;;;;;;;-141.50;100.00;63355.56;5090331;28;20150;-76
2022/04/11 02:45:52;;;;;;;13.65;5.75;;;;;;;-141.50;100.00;63355.56;5073024;28;20094;-76
2022/04/11 02:48:19;;;;;;;23.23;7.60;;;;;;;-141.50;100.00;63355.56;5089990;28;20048;-76
2022/04/11 02:50:46;;;;;;;16.15;7.15;;;;;;;-141.50;100.00;63355.56;5090202;28;20052;-76
2022/04/11 02:53:12;;;;;;;14.48;6.55;;;;;;;-141.50;100.00;63355.56;5089535;28;20121;-76
2022/04/11 02:55:39;;;;;;;14.40;6.60;;;;;;;-141.50;100.00;63355.56;5089623;28;20101;-74
2022/04/11 02:58:05;;;;;;;13.30;5.65;;;;;;;-141.50;100.00;63355.56;5090257;28;20098;-74
2022/04/11 03:00:32;;;;;;;13.65;5.75;;;;;;;-141.50;100.00;63355.56;5089148;28;20226;-75
2022/04/11 03:02:58;;;;;;;9.82;5.43;;;;;;;-141.50;100.00;63355.56;5089805;28;20083;-76
2022/04/11 03:05:25;;;;;;;14.80;6.18;;;;;;;-141.50;100.00;63355.56;5071264;28;20555;-77
2022/04/11 03:07:51;;;;;;;12.32;6.10;;;;;;;-141.50;100.00;63355.56;5081490;28;20052;-76
2022/04/11 03:10:19;;;;;;;14.30;7.00;;;;;;;-141.50;100.00;63355.56;5090291;28;20133;-75
2022/04/11 03:12:45;;;;;;;13.45;6.60;;;;;;;-141.50;100.00;63355.56;5090189;28;20048;-76
2022/04/11 03:15:12;;;;;;;18.70;7.63;;;;;;;-141.50;100.00;63355.56;5090499;28;20059;-76
2022/04/11 03:17:38;;;;;;;13.18;7.05;;;;;;;-141.50;100.00;63355.56;5074284;28;20169;-76
2022/04/11 03:20:05;;;;;;;14.00;6.63;;;;;;;-141.50;100.00;63355.56;5090313;28;20113;-76
2022/04/11 03:22:32;;;;;;;8.93;5.90;;;;;;;-141.50;100.00;63355.56;5071402;28;20271;-77
2022/04/11 03:24:59;;;;;;;15.27;6.70;;;;;;;-141.50;100.00;63355.56;5089904;28;20491;-75
2022/04/11 03:27:25;;;;;;;13.50;6.50;;;;;;;-141.50;100.00;63355.56;5090057;28;20052;-75
2022/04/11 03:29:52;;;;;;;13.10;6.88;;;;;;;-141.50;100.00;63355.56;5070602;28;20048;-76
2022/04/11 03:32:18;;;;;;;13.98;6.70;;;;;;;-141.50;100.00;63355.56;5071613;28;20082;-77
2022/04/11 03:34:45;;;;;;;16.38;7.10;;;;;;;-141.50;100.00;63355.56;5087047;28;20159;-75
2022/04/11 03:37:12;;;;;;;17.23;6.47;;;;;;;-141.50;100.00;63355.56;5088888;28;20055;-76
2022/04/11 03:39:38;;;;;;;14.15;7.15;;;;;;;-141.50;100.00;63355.56;5089290;28;20515;-77
2022/04/11 03:42:05;;;;;;;11.07;6.10;;;;;;;-141.50;100.00;63355.56;5089142;28;20056;-77
2022/04/11 03:44:32;;;;;;;13.75;6.07;;;;;;;-141.50;100.00;63355.56;5089945;28;20531;-74
2022/04/11 03:46:58;;;;;;;12.13;6.35;;;;;;;-141.50;100.00;63355.56;5090414;28;20105;-76
2022/04/11 03:49:24;;;;;;;12.73;6.20;;;;;;;-141.50;100.00;63355.56;5089196;28;20493;-75
2022/04/11 03:51:51;;;;;;;13.80;5.95;;;;;;;-141.50;100.00;63355.56;5071233;28;20070;-77
2022/04/11 03:54:17;;;;;;;12.27;5.90;;;;;;;-141.50;100.00;63355.56;5075628;28;20136;-77
2022/04/11 03:56:44;;;;;;;17.85;7.22;;;;;;;-141.50;100.00;63355.56;5073502;28;20044;-76
2022/04/11 03:59:11;;;;;;;17.88;6.65;;;;;;;-141.50;100.00;63355.56;5091667;28;20482;-77
2022/04/11 04:01:37;;;;;;;11.63;6.13;;;;;;;-141.50;100.00;63355.56;5095867;28;20076;-75
2022/04/11 04:04:04;;;;;;;12.73;5.95;;;;;;;-141.50;100.00;63355.56;5102479;28;20069;-75
2022/04/11 04:06:31;;;;;;;14.05;6.35;;;;;;;-141.50;100.00;63355.56;5104259;28;20051;-75
2022/04/11 04:08:57;;;;;;;15.43;6.20;;;;;;;-141.50;100.00;63355.56;5090750;28;20485;-78
2022/04/11 04:11:24;;;;;;;15.73;6.65;;;;;;;-141.50;100.00;63355.56;5091291;28;20083;-74
2022/04/11 04:13:50;;;;;;;15.07;6.60;;;;;;;-141.50;100.00;63355.56;5103021;28;20067;-76
2022/04/11 04:16:16;;;;;;;12.98;6.40;;;;;;;-141.50;100.00;63355.56;5096101;28;20048;-76
2022/04/11 04:18:44;;;;;;;11.35;6.40;;;;;;;-141.50;100.00;63355.56;5091663;28;20206;-77
2022/04/11 04:21:10;;;;;;;12.00;6.32;;;;;;;-141.50;100.00;63355.56;5091373;28;20737;-80
2022/04/11 04:23:37;;;;;;;12.18;6.18;;;;;;;-141.50;100.00;63355.56;5095297;28;20105;-78
2022/04/11 04:26:06;;;;;;;16.42;6.50;;;;;;;-141.50;100.00;63355.56;5090392;28;20253;-79
2022/04/11 04:28:33;;;;;;;15.27;7.22;;;;;;;-141.50;100.00;63355.56;5108999;28;20055;-75
2022/04/11 04:30:59;;;;;;;16.20;6.72;;;;;;;-141.50;100.00;63355.56;5088718;28;20044;-77
2022/04/11 04:33:30;;;;;;;16.27;6.70;;;;;;;-141.50;100.00;63355.56;5107660;28;20112;-77
2022/04/11 04:36:06;;;;;;;27.50;6.88;;;;;;;-141.50;100.00;63355.56;5093994;28;20048;-76
2022/04/11 04:38:32;;;;;;;23.63;6.68;;;;;;;-141.50;100.00;63355.56;5102162;28;20076;-78
2022/04/11 04:40:59;;;;;;;19.33;6.38;;;;;;;-141.50;100.00;63355.56;5105987;28;20044;-79
2022/04/11 04:43:29;;;;;;;24.08;5.88;;;;;;;-141.50;100.00;63355.56;5088260;28;20048;-80
2022/04/11 04:45:55;;;;;;;17.05;6.40;;;;;;;-141.50;100.00;63355.56;5111939;28;20051;-76
2022/04/11 04:48:22;;;;;;;19.50;6.47;;;;;;;-141.50;100.00;63355.56;5112587;28;20052;-79
2022/04/11 04:50:48;;;;;;;14.48;5.78;;;;;;;-141.50;100.00;63355.56;5080191;28;20052;-78
2022/04/11 04:53:16;;;;;;;15.65;5.13;;;;;;;-141.50;100.00;63355.56;5103981;28;20381;-78
2022/04/11 04:55:42;;;;;;;16.75;5.75;;;;;;;-141.50;100.00;63355.56;5084258;28;20077;-79
2022/04/11 04:58:09;;;;;;;13.35;6.15;;;;;;;-141.50;100.00;63355.56;5099977;28;20044;-81
2022/04/11 05:00:35;;;;;;;13.05;5.85;;;;;;;-141.50;100.00;63355.56;5098289;28;20083;-82
2022/04/11 05:03:03;;;;;;;13.63;6.32;;;;;;;-141.50;100.00;63355.56;5077205;28;20052;-80
2022/04/11 05:05:29;;;;;;;20.33;6.85;;;;;;;-141.50;100.00;63355.56;5097440;28;20071;-80
2022/04/11 05:07:56;;;;;;;18.00;6.95;;;;;;;-141.50;100.00;63355.56;5072595;28;20051;-79
2022/04/11 05:10:22;;;;;;;13.27;6.45;;;;;;;-141.50;100.00;63355.56;5080932;28;20079;-79
2022/04/11 05:12:49;;;;;;;14.48;6.00;;;;;;;-141.50;100.00;63355.56;5098081;28;20079;-80
2022/04/11 05:15:16;;;;;;;14.52;5.95;;;;;;;-141.50;100.00;63355.56;5097617;28;20055;-80
2022/04/11 05:17:42;;;;;;;14.23;5.55;;;;;;;-141.50;100.00;63355.56;5097277;28;20048;-78
2022/04/11 05:20:09;;;;;;;16.25;6.22;;;;;;;-141.50;100.00;63355.56;5073045;28;20075;-79
2022/04/11 05:22:36;;;;;;;12.73;6.72;;;;;;;-141.50;100.00;63355.56;5094367;28;20513;-80
2022/04/11 05:25:03;;;;;;;14.63;6.10;;;;;;;-141.50;100.00;63355.56;5093412;28;20135;-73
2022/04/11 05:27:32;;;;;;;11.65;6.22;;;;;;;-141.50;100.00;63355.56;5077121;28;20523;-79
2022/04/11 05:29:59;;;;;;;17.65;6.55;;;;;;;-141.50;100.00;63355.56;5087795;28;20043;-80
2022/04/11 05:32:27;;;;;;;19.65;7.43;;;;;;;-141.50;100.00;63355.56;5083016;28;20093;-80
2022/04/11 05:34:53;;;;;;;12.85;6.85;;;;;;;-141.50;100.00;63355.56;5090884;28;20116;-77
2022/04/11 05:37:20;;;;;;;13.38;6.80;;;;;;;-141.50;100.00;63355.56;5093815;28;20127;-79
2022/04/11 05:39:46;;;;;;;12.48;6.65;;;;;;;-141.50;100.00;63355.56;5094071;28;20186;-81
2022/04/11 05:42:13;;;;;;;28.70;9.40;;;;;;;-141.50;100.00;63355.56;5093114;28;20075;-78
2022/04/11 05:44:40;;;;;;;15.00;6.47;;;;;;;-141.50;100.00;63355.56;5083105;28;20052;-78
2022/04/11 05:47:06;;;;;;;12.52;6.18;;;;;;;-141.50;100.00;63355.56;5090873;28;20048;-82
2022/04/11 05:49:33;;;;;;;12.35;6.03;;;;;;;-141.50;100.00;63355.56;5075662;28;20048;-79
2022/04/11 05:52:00;;;;;;;11.27;6.32;;;;;;;-141.50;100.00;63355.56;5088282;28;20059;-82
2022/04/11 05:54:27;;;;;;;17.65;6.22;;;;;;;-141.50;100.00;63355.56;5098585;28;20052;-80
2022/04/11 05:56:55;;;;;;;12.52;5.85;;;;;;;-141.50;100.00;63355.56;5079080;28;20211;-80
2022/04/11 05:59:22;;;;;;;11.18;6.10;;;;;;;-141.50;100.00;63355.56;5083439;28;20059;-81
2022/04/11 06:01:48;;;;;;;12.18;6.22;;;;;;;-141.50;100.00;63355.56;5101403;28;20047;-80
2022/04/11 06:04:17;;;;;;;11.68;5.88;;;;;;;-141.50;100.00;63355.56;5085104;28;20052;-81
2022/04/11 06:06:44;;;;;;;15.82;6.10;;;;;;;-141.50;100.00;63355.56;5096123;28;20048;-78
2022/04/11 06:09:10;;;;;;;29.42;10.63;;;;;;;-141.50;100.00;63355.56;5083039;28;20262;-78
2022/04/11 06:11:37;;;;;;;30.08;12.55;;;;;;;-141.50;100.00;63355.56;5113418;28;20051;-81
2022/04/11 06:14:03;;;;;;;23.88;10.45;;;;;;;-141.50;100.00;63355.56;5115370;28;20044;-80
2022/04/11 06:16:30;;;;;;;16.35;7.22;;;;;;;-141.50;100.00;63355.56;5115310;28;20071;-77
2022/04/11 06:18:57;;;;;;;18.80;6.57;;;;;;;-141.50;100.00;63355.56;5108426;28;20044;-79
2022/04/11 06:21:24;;;;;;;12.10;5.65;;;;;;;-141.50;100.00;63355.56;5084333;28;20147;-82
2022/04/11 06:23:51;;;;;;;12.65;4.45;;;;;;;-141.50;100.00;63355.56;5088936;28;20576;-77
2022/04/11 06:26:17;;;;;;;14.00;4.22;;;;;;;-141.50;100.00;63355.56;5072141;28;20056;-78
2022/04/11 06:28:44;;;;;;;14.55;3.80;;;;;;;-141.50;100.00;63355.56;5074745;28;20112;-79
2022/04/11 06:31:11;;;;;;;11.40;2.92;;;;;;;-141.50;100.00;63355.56;5092603;28;20513;-80
2022/04/11 06:33:38;;;;;;;8.77;3.20;;;;;;;-141.50;100.00;63355.56;5096631;28;20048;-79
2022/04/11 06:36:05;;;;;;;10.52;2.58;;;;;;;-141.50;100.00;63355.56;5099802;28;20060;-78
2022/04/11 06:38:32;;;;;;;11.20;2.83;;;;;;;-141.50;100.00;63355.56;5106162;28;20047;-80
2022/04/11 06:40:59;;;;;;;8.50;2.60;;;;;;;-141.50;100.00;63355.56;5100468;28;20055;-77
2022/04/11 06:43:25;;;;;;;10.05;2.50;;;;;;;-141.50;100.00;63355.56;5090392;28;20086;-78
2022/04/11 06:45:52;;;;;;;8.30;1.80;;;;;;;-141.50;100.00;63355.56;5077822;28;20097;-78
2022/04/11 06:48:22;;;;;;;3.45;1.30;;;;;;;-141.50;100.00;63355.56;5075522;28;20106;-79
2022/04/11 06:50:50;;;;;;;7.13;1.42;;;;;;;-141.50;100.00;63355.56;5074550;28;20076;-77
2022/04/11 06:53:17;;;;;;;5.97;1.40;;;;;;;-141.50;100.00;63355.56;5073797;28;20105;-77
2022/04/11 06:55:44;;;;;;;8.10;1.55;;;;;;;-141.50;100.00;63355.56;5072820;28;20505;-77
2022/04/11 06:58:11;;;;;;;12.27;1.80;;;;;;;-141.50;100.00;63355.56;5041034;28;20048;-77
2022/04/11 07:00:37;;;;;;;4.05;1.17;;;;;;;-141.50;100.00;63355.56;5075150;28;20052;-80
2022/04/11 07:03:04;;;;;;;6.63;1.40;;;;;;;-141.50;100.00;63355.56;5074640;28;20461;-77
2022/04/11 07:05:30;;;;;;;5.80;1.20;;;;;;;-141.50;100.00;63355.56;5059406;28;20681;-79
2022/04/11 07:07:57;;;;;;;5.38;0.93;;;;;;;-141.50;100.00;63355.56;5086192;28;20043;-77
2022/04/11 07:10:24;;;;;;;4.30;1.10;;;;;;;-141.50;100.00;63355.56;5069322;28;20052;-76
2022/04/11 07:12:51;;;;;;;4.30;1.42;;;;;;;-141.50;100.00;63355.56;5086400;28;20066;-78
2022/04/11 07:15:17;;;;;;;6.45;1.30;;;;;;;-141.50;100.00;63355.56;5073802;28;20063;-77
2022/04/11 07:17:44;;;;;;;5.13;1.17;;;;;;;-141.50;100.00;63355.56;5076419;28;20056;-77
2022/04/11 07:20:11;;;;;;;4.63;1.23;;;;;;;-141.50;100.00;63355.56;5073022;28;20053;-77
2022/04/11 07:22:38;;;;;;;4.10;1.25;;;;;;;-141.50;100.00;63355.56;5095640;28;20055;-77
2022/04/11 07:25:11;;;;;;;;;;;;;;;5.87;100.00;98180.47;5108452;27;20903;-77
2022/04/11 07:27:37;;;;;;;3.38;0.93;;;;;;;5.89;100.00;98186.34;5090086;28;20433;-76
2022/04/11 07:30:04;;;;;;;6.22;1.13;;;;;;;6.11;100.00;98174.25;5067516;28;20135;-78
2022/04/11 07:32:31;;;;;;;8.25;1.60;;;;;;;6.43;100.00;98183.81;5088289;28;20121;-78
2022/04/11 07:34:58;;;;;;;5.15;1.30;;;;;;;6.94;100.00;98184.41;5085752;28;20079;-77
2022/04/11 07:37:26;;;;;;;5.85;1.10;;;;;;;6.66;100.00;98177.78;5078704;28;20072;-79
2022/04/11 07:39:52;;;;;;;4.90;1.02;;;;;;;6.43;100.00;98181.13;5087545;28;20477;-76
2022/04/11 07:42:19;;;;;;;7.72;1.35;;;;;;;6.39;100.00;98177.38;5086207;28;20133;-77
2022/04/11 07:44:46;;;;;;;7.40;1.10;;;;;;;6.51;100.00;98177.84;5089937;28;20084;-78
2022/04/11 07:47:12;;;;;;;3.70;0.90;;;;;;;6.70;100.00;98186.94;5089091;28;20078;-76
2022/04/11 07:49:40;;;;;;;3.17;1.00;;;;;;;6.56;100.00;98184.03;5088226;28;20048;-77
2022/04/11 07:52:07;;;;;;;3.65;0.75;;;;;;;6.59;100.00;98182.66;5086431;28;20084;-79
2022/04/11 07:54:34;;;;;;;3.80;1.08;;;;;;;6.71;100.00;98189.34;5087073;28;20044;-76
2022/04/11 07:57:00;;;;;;;5.85;1.17;;;;;;;6.67;94.20;98187.47;5086207;28;20052;-75
2022/04/11 07:59:27;;;;;;;4.78;0.95;;;;;;;6.73;100.00;98191.78;5085232;28;20052;-77
2022/04/11 08:01:53;;;;;;;4.70;1.25;;;;;;;6.89;100.00;98193.31;5085162;28;20136;-77
2022/04/11 08:04:20;;;;;;;6.72;1.10;;;;;;;6.81;97.24;98191.97;5097625;28;20032;-77
2022/04/11 08:06:46;;;;;;;5.68;1.10;;;;;;;6.80;89.31;98189.56;5111221;28;20044;-77
2022/04/11 08:09:13;;;;;;;7.95;1.50;;;;;;;7.06;100.00;98182.97;5104374;28;20102;-77
2022/04/11 08:11:39;;;;;;;7.53;1.25;;;;;;;7.00;87.42;98194.03;5102977;28;20048;-77
2022/04/11 08:14:06;;;;;;;8.48;1.73;;;;;;;6.85;79.94;98195.75;5091533;28;20044;-77
2022/04/11 08:16:35;;;;;;;7.95;1.17;;;;;;;6.99;75.18;98190.56;5085502;28;20060;-76
2022/04/11 08:19:02;;;;;;;5.78;0.82;;;;;;;7.12;71.78;98189.94;5086542;28;20059;-77
2022/04/11 08:21:29;;;;;;;2.83;0.77;;;;;;;7.27;72.96;98189.03;5094308;28;20141;-77
2022/04/11 08:23:55;;;;;;;6.22;0.88;;;;;;;7.30;68.21;98193.88;5088010;28;20164;-76
2022/04/11 08:26:22;;;;;;;5.20;0.90;;;;;;;7.35;65.37;98191.94;5086876;28;20080;-77
2022/04/11 08:28:48;;;;;;;3.88;0.80;;;;;;;7.49;64.34;98194.78;5085296;28;20534;-77
2022/04/11 08:31:15;;;;;;;3.83;0.77;;;;;;;7.65;61.38;98182.00;5117933;28;20084;-77
2022/04/11 08:33:42;;;;;;;2.47;0.90;;;;;;;7.84;65.33;98180.22;5085846;28;20502;-77
2022/04/11 08:36:08;;;;;;;6.60;0.88;;;;;;;7.81;63.50;98178.09;5072531;28;20086;-77
2022/04/11 08:38:35;;;;;;;41.83;15.98;;;;;;;7.93;65.51;98179.31;5072567;28;20056;-77
2022/04/11 08:41:03;;;;;;;3.25;0.80;;;;;;;7.83;59.32;98181.31;5072011;28;20056;-77
2022/04/11 08:43:30;;;;;;;5.45;0.80;;;;;;;7.98;58.51;98165.78;5070816;28;20048;-77
2022/04/11 08:46:01;;;;;;;6.35;0.98;;;;;;;8.04;60.85;98167.38;5071997;28;20130;-77
2022/04/11 08:48:28;;;;;;;3.08;0.80;;;;;;;8.10;59.72;98171.59;5072295;28;20110;-77
2022/04/11 08:50:55;;;;;;;5.40;0.90;;;;;;;8.23;58.80;98166.63;5070033;28;20060;-77
2022/04/11 08:53:22;;;;;;;28.95;9.93;;;;;;;8.44;59.75;98162.66;5071759;28;20087;-77
2022/04/11 08:55:49;;;;;;;6.25;1.95;;;;;;;8.51;54.78;98163.91;5071210;28;20500;-78
2022/04/11 08:58:19;;;;;;;2.88;0.70;;;;;;;8.52;55.49;98164.69;5073202;28;20145;-78
2022/04/11 09:00:45;;;;;;;3.15;0.82;;;;;;;8.43;56.42;98155.63;5071335;28;20057;-78
2022/04/11 09:03:12;;;;;;;2.47;0.70;;;;;;;8.36;53.03;98155.19;5072128;28;20044;-78
2022/04/11 09:05:39;;;;;;;3.50;0.60;;;;;;;8.59;53.13;98154.38;5071048;28;20075;-77
2022/04/11 09:08:06;;;;;;;3.90;0.82;;;;;;;8.69;54.08;98160.44;5063603;28;20056;-78
2022/04/11 09:10:38;;;;;;;3.00;0.55;;;;;;;8.66;51.09;98149.41;5070333;28;20192;-77
2022/04/11 09:13:07;;;;;;;2.65;0.60;;;;;;;8.96;50.85;98151.69;5083056;28;20110;-77
2022/04/11 09:15:47;;;;;;;5.15;0.80;;;;;;;8.99;52.42;98148.41;5092611;28;20048;-79
2022/04/11 09:18:14;;;;;;;2.72;0.85;;;;;;;9.18;50.51;98149.22;5097361;28;20055;-78
2022/04/11 09:20:42;;;;;;;2.38;0.98;;;;;;;9.31;51.59;98151.19;5113558;28;20036;-77
2022/04/11 09:23:19;;;;;;;1.80;0.80;;;;;;;9.35;51.27;98146.78;5115232;28;20072;-77
2022/04/11 09:25:46;;;;;;;4.10;1.10;;;;;;;9.38;51.61;98148.09;5109272;28;20048;-76
2022/04/11 09:28:13;;;;;;;2.42;0.80;;;;;;;9.88;49.36;98133.72;5093757;28;20072;-76
2022/04/11 09:30:43;;;;;;;6.90;0.90;;;;;;;9.80;48.04;98134.44;5084612;28;20051;-76
2022/04/11 09:33:11;;;;;;;2.97;0.80;;;;;;;9.66;47.51;98124.66;5071742;28;20048;-76
2022/04/11 09:35:40;;;;;;;2.70;0.88;;;;;;;9.89;47.34;98131.81;5070215;28;20044;-77
2022/04/11 09:38:18;;;;;;;2.28;0.70;;;;;;;10.10;46.92;98132.25;5071756;28;20462;-77
2022/04/11 09:40:49;;;;;;;2.47;0.90;;;;;;;10.22;47.28;98127.97;5089570;28;20359;-76
2022/04/11 09:43:24;;;;;;;2.72;0.70;;;;;;;10.83;49.85;98129.44;5090366;28;20067;-76
2022/04/11 09:45:51;;;;;;;5.95;0.80;;;;;;;10.93;46.45;98121.91;5069907;28;20526;-77
2022/04/11 09:48:22;;;;;;;4.82;1.38;;;;;;;11.25;45.04;98123.63;5070760;28;20139;-77
2022/04/11 09:50:49;;;;;;;2.45;0.50;;;;;;;10.92;44.28;98114.06;5069262;28;20110;-75
2022/04/11 09:53:21;;;;;;;3.40;0.65;;;;;;;11.11;43.27;98129.09;5069825;28;20052;-77
2022/04/11 09:55:54;;;;;;;5.40;0.85;;;;;;;10.99;42.29;98125.31;5069500;28;20045;-77
2022/04/11 09:58:22;;;;;;;2.58;0.60;;;;;;;11.43;42.49;98124.56;5070893;28;20389;-78
2022/04/11 10:00:51;;;;;;;3.70;0.68;;;;;;;11.42;43.16;98114.81;5069768;28;20171;-76
2022/04/11 10:03:22;;;;;;;2.45;0.70;;;;;;;11.74;41.67;98117.28;5070783;28;20052;-78
2022/04/11 10:05:49;;;;;;;2.58;0.70;;;;;;;11.64;42.91;98112.09;5069951;28;20044;-77
2022/04/11 10:08:17;;;;;;;2.30;0.70;;;;;;;12.57;40.98;98113.63;5069470;28;20471;-78
2022/04/11 10:10:44;;;;;;;2.53;0.60;;;;;;;13.97;39.32;98104.84;5067589;28;20056;-78
2022/04/11 10:13:13;;;;;;;3.15;0.90;;;;;;;13.63;39.23;98111.16;5068287;28;20118;-78
2022/04/11 10:15:42;;;;;;;2.20;0.63;;;;;;;13.55;39.60;98101.09;5069702;28;20131;-77
2022/04/11 10:18:13;;;;;;;2.33;0.73;;;;;;;14.05;37.62;98104.00;5070176;28;20059;-78
2022/04/11 10:20:42;;;;;;;1.75;0.73;;;;;;;12.78;38.41;98102.97;5088800;28;20530;-78
2022/04/11 10:23:55;;;;;;;2.78;0.85;;;;;;;13.39;38.50;98101.94;5090507;28;20111;-79
2022/04/11 10:26:25;;;;;;;3.33;0.80;;;;;;;14.88;35.00;98096.88;5063512;28;20113;-76
2022/04/11 10:28:54;;;;;;;2.95;0.80;;;;;;;15.96;35.04;98087.59;5078760;28;20059;-77
2022/04/11 10:31:35;;;;;;;3.53;1.08;;;;;;;16.47;34.18;98074.41;5076708;28;20048;-78
2022/04/11 10:34:02;;;;;;;2.22;0.60;;;;;;;17.01;32.83;98083.94;5086896;28;20040;-77
2022/04/11 10:36:56;;;;;;;3.53;1.20;;;;;;;16.47;33.54;98074.41;5085467;28;20134;-77
2022/04/11 10:39:24;;;;;;;3.92;0.90;;;;;;;16.47;33.54;98074.41;5082511;28;20125;-77
2022/04/11 10:41:57;;;;;;;1.20;0.80;;;;;;;18.01;32.31;96241.28;5064959;28;20045;-77
2022/04/11 10:44:33;;;;;;;1.95;0.93;;;;;;;17.29;32.69;98015.75;5067823;28;20053;-76
2022/04/11 10:47:09;;;;;;;3.58;0.98;;;;;;;15.78;35.69;98071.72;5073819;28;20075;-77
2022/04/11 10:49:44;;;;;;;;;;;;;;;16.41;34.72;74350.44;5069216;28;20086;-77
2022/04/11 10:52:32;;;;;;;3.85;0.80;;;;;;;15.99;33.63;98064.25;5066618;28;20402;-77
2022/04/11 10:55:16;;;;;;;2.50;1.10;;;;;;;16.33;34.45;98060.31;5065598;28;20067;-77
2022/04/11 10:57:46;;;;;;;3.00;1.00;;;;;;;17.76;34.10;98067.69;5075169;28;20071;-77
2022/04/11 11:00:13;;;;;;;1.95;1.08;;;;;;;18.04;32.68;98062.97;5060423;28;20080;-76
2022/04/11 11:02:52;;;;;;;2.92;1.00;;;;;;;16.39;34.63;98059.72;5075124;28;20557;-78
2022/04/11 11:05:49;;;;;;;2.65;1.00;;;;;;;14.99;35.44;98056.41;5085306;28;20036;-77
2022/04/11 11:08:23;;;;;;;3.00;1.10;;;;;;;16.40;34.79;98055.06;5065954;28;20559;-78
2022/04/11 11:10:52;;;;;;;3.53;0.90;;;;;;;15.56;37.19;98051.09;5071295;28;20299;-77
2022/04/11 11:13:34;;;;;;;3.40;1.00;;;;;;;15.41;35.55;98057.13;5069030;28;20091;-78
2022/04/11 11:16:21;;;;;;;4.53;1.23;;;;;;;15.03;34.64;98048.31;5074747;28;20157;-76
2022/04/11 11:19:07;;;;;;;3.22;0.90;;;;;;;15.03;36.33;98046.41;5088708;28;20127;-77